Tropical Cyclones
[Index]
Main Index Home Page Stock Weather Photos Extreme Storms Discussion Storm News and Storm Chasing Reports Tropical Cyclones / Hurricanes / Typhoons Weather Data and Links Wild Fires / Bushfires Weather Observation Techniques Weather Picture Catalogue Tornado Pictures and Reports Stock Video Footage and DVDs for sale
Season 1994-1995 Tropical Cyclone JOSTA Track Map
Season 1994-1995 Summaries: [BoM-AU] [JTWC-AU] [JTWC-SIO] [JTWC-SPAC] [JTWC-SH]
<<- Previous TC | JTWC 1994-1995 Season | Next TC ->>

click for intensity scale information  Lat/long Grid: Show Hide

 Date Labels: Show Hide

Joint Typhoon Warning Centre Cyclone Data

Name: JOSTA

04 Mar 1995 18:00 UTC to 12 Mar 1995 18:00 UTC

    date/time    lat    long     hPa   cat  kts
1995-03-04 18   12.5    41.5                  15          
1995-03-05 00   12.6    41.5                  15          
1995-03-05 06   12.6    41.6                  15          
1995-03-05 12   12.7    41.6                  20          
1995-03-05 18   12.7    41.7                  20          
1995-03-06 00   12.8    41.7                  20          
1995-03-06 06   12.8    41.8                  25          
1995-03-06 12   12.9    41.8                  25          
1995-03-06 18   12.9    41.9                  25          
1995-03-07 00   13.0    41.9                  30          
1995-03-07 06   13.0    42.0                  30          
1995-03-07 12   13.1    42.0                  35          
1995-03-07 18   13.1    42.1                  35          
1995-03-08 00   13.2    42.1            1     40          
1995-03-08 06   13.3    42.2            1     40          
1995-03-08 12   13.4    42.3            1     45          
1995-03-08 18   13.5    42.4            1     45          
1995-03-09 00   13.6    42.5            1     50          
1995-03-09 06   13.7    42.6            2     55          
1995-03-09 12   13.8    42.7            2     60          
1995-03-09 18   13.9    42.9            2     65          
1995-03-10 00   14.0    43.1            2     65          
1995-03-10 06   14.1    43.5            2     65          
1995-03-10 12   14.2    44.0            2     60          
1995-03-10 18   14.3    44.5            2     60          
1995-03-11 00   14.4    45.0            2     55          
1995-03-11 06   14.5    45.6            1     50          
1995-03-11 12   14.6    46.1            1     45          
1995-03-11 18   14.5    46.5            1     40          
1995-03-12 00   14.4    46.8                  35          
1995-03-12 06   14.3    47.0                  30          
1995-03-12 12   14.2    47.2                  25          
1995-03-12 18   14.1    47.3                  20          
Winds are 1-min average.

Tropical cyclone tracks developed by Michael Bath using data from the Joint Typhoon Warning Centre Best Tracks and Google Maps.


[Australian Severe Weather index] [Copyright Notice] [Email Contacts] [Search This Site] [Privacy Policy]
Document: tropical_cyclone_josta.htm Updated: 18 September 2016